Time;durP1;ratioP1;P1;durP2;ratioP2;P2;SDS_P1;SDS_P2;PMS_P1;PMS_P2;Temp;Humidity;BMP_temperature;BMP_pressure;BME280_temperature;BME280_humidity;BME280_pressure;Samples;Min_cycle;Max_cycle;Signal;HPM_P1;HPM_P2
2022/03/15 00:00:19;;;;;;;22.80;9.02;;;;;;;;;;5042374;28;20036;-86
2022/03/15 00:02:45;;;;;;;15.77;8.18;;;;;;;;;;5041578;28;20047;-88
2022/03/15 00:05:12;;;;;;;15.73;8.43;;;;;;;;;;5041500;28;20087;-85
2022/03/15 00:07:38;;;;;;;19.15;7.55;;;;;;;;;;5041810;28;20047;-86
2022/03/15 00:10:04;;;;;;;19.80;7.63;;;;;;;;;;5040810;28;20467;-86
2022/03/15 00:12:31;;;;;;;16.45;6.95;;;;;;;;;;5041764;28;20043;-89
2022/03/15 00:14:57;;;;;;;19.20;8.07;;;;;;;;;;5059286;28;20125;-88
2022/03/15 00:17:24;;;;;;;20.60;7.40;;;;;;;;;;5042025;28;20037;-88
2022/03/15 00:19:50;;;;;;;19.80;7.03;;;;;;;;;;5057934;28;20044;-89
2022/03/15 00:22:17;;;;;;;20.45;6.82;;;;;;;;;;5059129;28;20036;-90
2022/03/15 00:24:43;;;;;;;18.35;7.25;;;;;;;;;;5043039;28;20068;-89
2022/03/15 00:27:14;;;;;;;20.23;7.50;;;;;;;;;;5058836;28;20127;-89
2022/03/15 00:29:41;;;;;;;21.20;6.82;;;;;;;;;;5058933;28;20051;-86
2022/03/15 00:32:08;;;;;;;20.52;7.90;;;;;;;;;;5041977;28;20063;-88
2022/03/15 00:34:34;;;;;;;17.40;7.10;;;;;;;;;;5058328;28;20102;-88
2022/03/15 00:37:00;;;;;;;19.95;8.05;;;;;;;;;;5077261;28;20040;-85
2022/03/15 00:39:26;;;;;;;13.98;7.45;;;;;;;;;;5059571;28;20056;-89
2022/03/15 00:41:53;;;;;;;20.73;8.65;;;;;;;;;;5059632;28;20041;-88
2022/03/15 00:44:19;;;;;;;12.38;7.18;;;;;;;;;;5042329;28;20182;-86
2022/03/15 00:46:45;;;;;;;15.23;7.50;;;;;;;;;;5041982;28;20044;-87
2022/03/15 00:49:11;;;;;;;18.65;6.57;;;;;;;;;;5041414;28;20044;-86
2022/03/15 00:51:37;;;;;;;14.80;6.45;;;;;;;;;;5057801;28;20047;-86
2022/03/15 00:54:03;;;;;;;20.67;7.45;;;;;;;;;;5057580;28;20049;-86
2022/03/15 00:56:29;;;;;;;11.35;7.22;;;;;;;;;;5058057;28;20041;-87
2022/03/15 00:58:56;;;;;;;9.98;7.28;;;;;;;;;;5058150;28;20044;-88
2022/03/15 01:01:22;;;;;;;15.60;7.65;;;;;;;;;;5060940;28;20063;-88
2022/03/15 01:03:48;;;;;;;11.98;7.35;;;;;;;;;;5045672;28;20117;-86
2022/03/15 01:06:14;;;;;;;15.70;7.20;;;;;;;;;;5079918;28;20100;-88
2022/03/15 01:08:40;;;;;;;21.02;9.43;;;;;;;;;;5061614;28;20048;-86
2022/03/15 01:11:07;;;;;;;15.52;9.40;;;;;;;;;;5045225;28;20045;-86
2022/03/15 01:13:33;;;;;;;29.00;9.63;;;;;;;;;;5061809;28;20047;-88
2022/03/15 01:15:59;;;;;;;12.25;8.75;;;;;;;;;;5086207;22;20048;-88
2022/03/15 01:18:30;;;;;;;16.10;9.38;;;;;;;;;;5062601;28;20090;-89
2022/03/15 01:20:56;;;;;;;22.73;9.10;;;;;;;;;;5045167;28;20048;-88
2022/03/15 01:23:22;;;;;;;25.95;10.68;;;;;;;;;;5061776;28;20049;-87
2022/03/15 01:25:49;;;;;;;18.77;10.10;;;;;;;;;;5062059;28;20044;-87
2022/03/15 01:28:15;;;;;;;14.93;9.13;;;;;;;;;;5062128;28;20044;-89
2022/03/15 01:30:41;;;;;;;24.58;9.95;;;;;;;;;;5044758;28;20040;-89
2022/03/15 01:33:07;;;;;;;21.80;9.43;;;;;;;;;;5061567;28;20124;-88
2022/03/15 01:35:36;;;;;;;22.50;8.95;;;;;;;;;;5061615;28;20048;-89
2022/03/15 01:38:02;;;;;;;30.77;10.20;;;;;;;;;;5061618;28;20045;-90
2022/03/15 01:40:28;;;;;;;21.40;9.18;;;;;;;;;;5062824;28;20492;-86
2022/03/15 01:42:54;;;;;;;20.98;9.75;;;;;;;;;;5063011;28;20049;-92
2022/03/15 01:45:20;;;;;;;19.35;9.57;;;;;;;;;;5062414;28;20052;-88
2022/03/15 01:47:46;;;;;;;20.70;10.38;;;;;;;;;;5064012;28;20373;-92
2022/03/15 01:50:13;;;;;;;29.13;10.70;;;;;;;;;;5047046;28;20036;-93
2022/03/15 01:52:39;;;;;;;23.50;10.52;;;;;;;;;;5046012;28;20178;-90
2022/03/15 01:55:05;;;;;;;24.35;10.75;;;;;;;;;;5062650;28;20044;-92
2022/03/15 01:57:35;;;;;;;18.92;9.70;;;;;;;;;;5046245;28;20052;-89
2022/03/15 02:00:01;;;;;;;27.80;11.90;;;;;;;;;;5046438;28;20097;-87
2022/03/15 02:02:27;;;;;;;16.88;9.77;;;;;;;;;;5061869;28;20051;-92
2022/03/15 02:04:53;;;;;;;18.00;9.25;;;;;;;;;;5079957;28;20048;-92
2022/03/15 02:07:26;;;;;;;20.85;10.80;;;;;;;;;;5061497;28;20036;-90
2022/03/15 02:09:58;;;;;;;19.90;9.63;;;;;;;;;;5061653;28;20072;-90
2022/03/15 02:12:24;;;;;;;22.10;11.48;;;;;;;;;;5045151;28;20484;-91
2022/03/15 02:14:50;;;;;;;16.27;9.27;;;;;;;;;;5045102;28;20040;-88
2022/03/15 02:17:16;;;;;;;23.40;10.15;;;;;;;;;;5044845;28;20057;-86
2022/03/15 02:19:44;;;;;;;25.23;11.23;;;;;;;;;;5078503;28;20059;-89
2022/03/15 02:22:10;;;;;;;20.48;11.63;;;;;;;;;;5079269;28;20045;-89
2022/03/15 02:24:38;;;;;;;23.38;11.45;;;;;;;;;;5044566;28;20048;-90
2022/03/15 02:27:04;;;;;;;26.40;10.40;;;;;;;;;;5060834;28;20048;-89
2022/03/15 02:29:30;;;;;;;20.13;9.65;;;;;;;;;;5060722;28;20049;-91
2022/03/15 02:31:57;;;;;;;26.42;10.05;;;;;;;;;;5044423;28;20049;-88
2022/03/15 02:34:23;;;;;;;23.17;12.15;;;;;;;;;;5060923;28;20094;-90
2022/03/15 02:36:50;;;;;;;17.27;10.13;;;;;;;;;;5061543;28;20076;-86
2022/03/15 02:39:16;;;;;;;20.98;10.15;;;;;;;;;;5044303;28;20429;-89
2022/03/15 02:41:42;;;;;;;18.48;10.27;;;;;;;;;;5043539;28;20040;-88
2022/03/15 02:44:09;;;;;;;19.90;9.82;;;;;;;;;;5060081;28;20048;-87
2022/03/15 02:46:39;;;;;;;20.08;10.50;;;;;;;;;;5060566;28;20048;-88
2022/03/15 02:49:05;;;;;;;16.30;10.25;;;;;;;;;;5078173;28;20452;-88
2022/03/15 02:51:31;;;;;;;20.10;11.60;;;;;;;;;;5078061;28;20051;-88
2022/03/15 02:53:57;;;;;;;22.88;10.73;;;;;;;;;;5043190;28;20053;-86
2022/03/15 02:56:24;;;;;;;21.17;10.98;;;;;;;;;;5060641;28;20048;-88
2022/03/15 02:58:50;;;;;;;25.88;11.25;;;;;;;;;;5059320;28;20394;-90
2022/03/15 03:01:16;;;;;;;19.77;11.02;;;;;;;;;;5043410;28;20501;-88
2022/03/15 03:03:42;;;;;;;15.38;10.35;;;;;;;;;;5043617;28;20036;-89
2022/03/15 03:06:08;;;;;;;14.85;10.25;;;;;;;;;;5077440;28;20044;-89
2022/03/15 03:08:34;;;;;;;25.58;10.13;;;;;;;;;;5059659;28;20033;-89
2022/03/15 03:11:02;;;;;;;22.15;10.23;;;;;;;;;;5058902;28;20048;-89
2022/03/15 03:13:30;;;;;;;17.95;11.13;;;;;;;;;;5042397;28;20037;-88
2022/03/15 03:15:58;;;;;;;23.25;10.80;;;;;;;;;;5041675;28;20056;-88
2022/03/15 03:18:29;;;;;;;18.95;11.30;;;;;;;;;;5076255;28;20102;-89
2022/03/15 03:20:56;;;;;;;22.45;10.20;;;;;;;;;;5059005;28;20158;-90
2022/03/15 03:23:22;;;;;;;29.98;11.40;;;;;;;;;;5042777;28;20040;-90
2022/03/15 03:25:48;;;;;;;23.75;11.55;;;;;;;;;;5042773;28;20055;-89
2022/03/15 03:28:15;;;;;;;33.83;12.20;;;;;;;;;;5042451;28;20040;-90
2022/03/15 03:30:47;;;;;;;20.05;10.80;;;;;;;;;;5061068;28;20062;-92
2022/03/15 03:33:19;;;;;;;19.60;10.43;;;;;;;;;;5079038;28;20041;-93
2022/03/15 03:35:45;;;;;;;27.48;11.82;;;;;;;;;;5061491;28;20094;-88
2022/03/15 03:38:12;;;;;;;22.88;12.10;;;;;;;;;;5060609;28;20075;-89
2022/03/15 03:40:39;;;;;;;27.85;11.70;;;;;;;;;;5076761;28;20064;-87
2022/03/15 03:43:05;;;;;;;17.83;10.85;;;;;;;;;;5059214;28;20037;-89
2022/03/15 03:45:31;;;;;;;23.60;11.93;;;;;;;;;;5042851;28;20074;-88
2022/03/15 03:47:58;;;;;;;24.50;10.45;;;;;;;;;;5042856;28;20076;-87
2022/03/15 03:50:24;;;;;;;20.23;10.77;;;;;;;;;;5060301;28;20125;-87
2022/03/15 03:52:50;;;;;;;16.48;10.20;;;;;;;;;;5042440;28;20045;-92
2022/03/15 03:55:19;;;;;;;20.85;10.35;;;;;;;;;;5043041;28;20086;-89
2022/03/15 03:57:45;;;;;;;14.38;9.40;;;;;;;;;;5042893;28;20052;-89
2022/03/15 04:00:11;;;;;;;16.95;9.40;;;;;;;;;;5042854;28;20098;-90
2022/03/15 04:02:38;;;;;;;21.10;10.45;;;;;;;;;;5043108;28;20075;-91
2022/03/15 04:05:04;;;;;;;18.90;10.65;;;;;;;;;;5058894;28;20131;-89
2022/03/15 04:07:30;;;;;;;18.38;9.38;;;;;;;;;;5060002;28;20104;-88
2022/03/15 04:09:56;;;;;;;16.58;10.68;;;;;;;;;;5043331;28;20044;-89
2022/03/15 04:12:23;;;;;;;18.63;11.50;;;;;;;;;;5058707;28;20044;-89
2022/03/15 04:14:50;;;;;;;20.20;10.95;;;;;;;;;;5041529;28;20493;-88
2022/03/15 04:17:16;;;;;;;17.38;9.82;;;;;;;;;;5041396;28;20135;-88
2022/03/15 04:19:42;;;;;;;19.85;10.20;;;;;;;;;;5058622;28;20409;-93
2022/03/15 04:22:08;;;;;;;15.25;10.35;;;;;;;;;;5041435;28;20045;-89
2022/03/15 04:24:34;;;;;;;17.40;11.25;;;;;;;;;;5057166;28;20608;-88
2022/03/15 04:27:01;;;;;;;23.20;11.68;;;;;;;;;;5041742;28;20044;-87
2022/03/15 04:29:27;;;;;;;21.40;10.82;;;;;;;;;;5056900;28;20052;-88
2022/03/15 04:31:53;;;;;;;21.55;9.45;;;;;;;;;;5041212;28;20047;-88
2022/03/15 04:34:19;;;;;;;21.15;10.57;;;;;;;;;;5040229;28;20110;-87
2022/03/15 04:36:46;;;;;;;22.67;10.48;;;;;;;;;;5056424;28;20055;-87
2022/03/15 04:39:13;;;;;;;16.65;9.98;;;;;;;;;;5039282;28;20051;-89
2022/03/15 04:41:39;;;;;;;16.27;10.43;;;;;;;;;;5057006;28;20047;-89
2022/03/15 04:44:06;;;;;;;30.17;12.13;;;;;;;;;;5056681;28;20550;-88
2022/03/15 04:46:33;;;;;;;16.92;10.40;;;;;;;;;;5074433;28;20041;-88
2022/03/15 04:48:59;;;;;;;21.45;10.48;;;;;;;;;;5057154;28;20044;-88
2022/03/15 04:51:25;;;;;;;20.55;11.18;;;;;;;;;;5056997;28;20055;-87
2022/03/15 04:53:52;;;;;;;26.42;11.65;;;;;;;;;;5040715;28;20130;-89
2022/03/15 04:56:19;;;;;;;18.42;11.20;;;;;;;;;;5041593;28;20084;-87
2022/03/15 04:58:45;;;;;;;18.70;10.70;;;;;;;;;;5040536;28;20087;-90
2022/03/15 05:01:12;;;;;;;22.27;11.52;;;;;;;;;;5042299;28;20052;-88
2022/03/15 05:03:38;;;;;;;23.80;11.68;;;;;;;;;;5057228;28;20098;-88
2022/03/15 05:06:04;;;;;;;19.08;11.57;;;;;;;;;;5040631;28;20071;-89
2022/03/15 05:08:31;;;;;;;20.30;11.88;;;;;;;;;;5040122;28;20048;-89
2022/03/15 05:11:06;;;;;;;34.30;11.75;;;;;;;;;;5056492;28;20076;-87
2022/03/15 05:13:44;;;;;;;19.35;10.70;;;;;;;;;;5040409;28;20043;-89
2022/03/15 05:16:18;;;;;;;21.38;11.90;;;;;;;;;;5056623;28;20057;-87
2022/03/15 05:18:45;;;;;;;21.52;11.82;;;;;;;;;;5040462;28;20397;-88
2022/03/15 05:21:16;;;;;;;58.75;13.93;;;;;;;;;;5056214;28;20501;-89
2022/03/15 05:23:42;;;;;;;23.08;13.13;;;;;;;;;;5040049;28;20139;-86
2022/03/15 05:26:08;;;;;;;19.98;12.75;;;;;;;;;;5074790;28;20055;-89
2022/03/15 05:28:35;;;;;;;25.83;12.68;;;;;;;;;;5040404;28;20037;-88
2022/03/15 05:31:01;;;;;;;25.95;12.20;;;;;;;;;;5041388;28;20057;-89
2022/03/15 05:33:29;;;;;;;21.77;12.35;;;;;;;;;;5057186;28;20049;-89
2022/03/15 05:36:01;;;;;;;23.83;12.18;;;;;;;;;;5040584;28;20146;-87
2022/03/15 05:38:27;;;;;;;28.25;11.32;;;;;;;;;;5041079;28;20036;-90
2022/03/15 05:40:56;;;;;;;46.38;12.25;;;;;;;;;;5039797;28;20123;-87
2022/03/15 05:43:23;;;;;;;36.83;14.13;;;;;;;;;;5040184;28;20075;-87
2022/03/15 05:45:53;;;;;;;23.08;11.45;;;;;;;;;;5055964;28;20439;-86
2022/03/15 05:48:19;;;;;;;24.23;14.32;;;;;;;;;;5040969;28;20109;-87
2022/03/15 05:50:48;;;;;;;23.33;12.52;;;;;;;;;;5043058;28;20052;-87
2022/03/15 05:53:14;;;;;;;19.20;12.57;;;;;;;;;;5043633;28;20366;-88
2022/03/15 05:55:40;;;;;;;22.67;13.25;;;;;;;;;;5042781;28;20048;-87
2022/03/15 05:58:06;;;;;;;27.15;13.48;;;;;;;;;;5042989;28;20068;-87
2022/03/15 06:00:33;;;;;;;28.23;13.68;;;;;;;;;;5060477;28;20478;-87
2022/03/15 06:02:59;;;;;;;28.45;14.68;;;;;;;;;;5059665;28;20082;-87
2022/03/15 06:05:25;;;;;;;30.30;15.68;;;;;;;;;;5043143;28;20083;-87
2022/03/15 06:07:53;;;;;;;25.25;13.85;;;;;;;;;;5059679;28;20119;-87
2022/03/15 06:10:21;;;;;;;28.20;14.18;;;;;;;;;;5060177;28;20131;-88
2022/03/15 06:12:48;;;;;;;24.00;13.82;;;;;;;;;;5042784;28;20089;-87
2022/03/15 06:15:15;;;;;;;27.13;15.32;;;;;;;;;;5077134;28;20083;-87
2022/03/15 06:17:48;;;;;;;25.67;14.00;;;;;;;;;;5075827;28;20044;-87
2022/03/15 06:20:15;;;;;;;22.30;13.20;;;;;;;;;;5059783;28;20055;-87
2022/03/15 06:22:42;;;;;;;31.70;15.00;;;;;;;;;;5042861;28;20075;-88
2022/03/15 06:25:09;;;;;;;26.17;14.52;;;;;;;;;;5041607;28;20041;-86
2022/03/15 06:27:35;;;;;;;34.00;15.02;;;;;;;;;;5041472;28;20044;-87
2022/03/15 06:30:01;;;;;;;29.00;14.68;;;;;;;;;;5058558;28;20157;-87
2022/03/15 06:32:27;;;;;;;29.20;13.48;;;;;;;;;;5058846;28;20043;-88
2022/03/15 06:34:53;;;;;;;25.95;15.55;;;;;;;;;;5042091;28;20397;-88
2022/03/15 06:37:19;;;;;;;26.13;14.93;;;;;;;;;;5058667;28;20040;-87
2022/03/15 06:39:45;;;;;;;27.10;15.30;;;;;;;;;;5042344;28;20413;-89
2022/03/15 06:42:12;;;;;;;33.75;17.30;;;;;;;;;;5058128;28;20036;-87
2022/03/15 06:44:41;;;;;;;27.20;15.00;;;6.00;99.90;;;;;;5040956;28;20106;-87
2022/03/15 06:47:07;;;;;;;24.33;14.60;;;;;;;;;;5057822;28;20048;-88
2022/03/15 06:49:33;;;;;;;29.25;15.15;;;;;;;;;;5041071;28;20055;-89
2022/03/15 06:51:59;;;;;;;26.77;14.38;;;;;;;;;;5057770;28;20040;-89
2022/03/15 06:54:26;;;;;;;30.48;14.05;;;;;;;;;;5041220;28;20140;-89
2022/03/15 06:56:53;;;;;;;29.05;14.85;;;;;;;;;;5041081;28;20047;-89
2022/03/15 06:59:19;;;;;;;25.50;14.32;;;;;;;;;;5041042;28;20108;-87
2022/03/15 07:01:46;;;;;;;27.85;14.65;;;;;;;;;;5040880;28;20045;-87
2022/03/15 07:04:12;;;;;;;30.42;15.88;;;;;;;;;;5041209;28;20071;-88
2022/03/15 07:06:38;;;;;;;22.58;14.77;;;;;;;;;;5042059;28;20127;-88
2022/03/15 07:09:04;;;;;;;33.83;16.63;;;;;;;;;;5040820;28;20049;-90
2022/03/15 07:11:31;;;;;;;31.33;15.57;;;;;;;;;;5040736;28;20127;-90
2022/03/15 07:13:57;;;;;;;34.17;16.33;;;;;;;;;;5057444;28;20070;-89
2022/03/15 07:16:23;;;;;;;26.08;15.32;;;;;;;;;;5040792;28;20060;-90
2022/03/15 07:18:49;;;;;;;29.48;16.17;;;;;;;;;;5057389;28;20083;-90
2022/03/15 07:21:16;;;;;;;22.77;16.52;;;;;;;;;;5057561;28;20063;-90
2022/03/15 07:23:43;;;;;;;26.85;15.25;;;;;;;;;;5040361;28;20052;-90
2022/03/15 07:26:09;;;;;;;29.92;15.93;;;;;;;;;;5040651;28;20044;-90
2022/03/15 07:28:35;;;;;;;28.15;16.13;;;;;;;;;;5040839;28;20524;-89
2022/03/15 07:31:02;;;;;;;27.83;15.73;;;;;;;;;;5042406;28;20044;-91
2022/03/15 07:33:28;;;;;;;27.35;14.32;;;;;;;;;;5058000;28;20051;-91
2022/03/15 07:35:54;;;;;;;29.58;15.75;;;;;;;;;;5057858;28;20493;-90
2022/03/15 07:38:20;;;;;;;32.13;16.15;;;;;;;;;;5058197;28;20041;-91
2022/03/15 07:40:46;;;;;;;27.30;14.93;;;;;;;;;;5058678;28;20049;-91
2022/03/15 07:43:13;;;;;;;32.63;16.83;;;;;;;;;;5058035;28;20048;-91
2022/03/15 07:45:39;;;;;;;27.90;15.48;;;;;;;;;;5041075;28;20509;-91
2022/03/15 07:48:05;;;;;;;30.10;16.73;;;;;;;;;;5041234;28;20497;-91
2022/03/15 07:50:32;;;;;;;26.35;16.88;;;;;;;;;;5041047;28;20076;-90
2022/03/15 07:52:58;;;;;;;36.15;17.80;;;;;;;;;;5040527;28;20094;-90
2022/03/15 07:55:24;;;;;;;32.88;18.45;;;;;;;;;;5056996;28;20074;-90
2022/03/15 07:57:50;;;;;;;38.47;19.33;;;;;;;;;;5041372;28;20389;-89
2022/03/15 08:00:17;;;;;;;31.77;17.30;;;;;;;;;;5040703;28;20051;-90
2022/03/15 08:02:43;;;;;;;33.92;18.63;;;;;;;;;;5040517;28;20036;-90
2022/03/15 08:05:09;;;;;;;28.73;15.95;;;;;;;;;;5040225;28;20127;-87
2022/03/15 08:07:36;;;;;;;28.10;18.50;;;;;;;;;;5040047;28;20044;-90
2022/03/15 08:10:12;;;;;;;30.65;18.38;;;;;;;;;;5040303;28;20102;-90
2022/03/15 08:12:41;;;;;;;30.90;18.88;;;;;;;;;;5040883;28;20047;-90
2022/03/15 08:15:09;;;;;;;35.25;19.20;;;;;;;;;;5039128;28;20135;-90
2022/03/15 08:17:35;;;;;;;33.72;20.85;;;;;;;;;;5039776;28;20054;-90
2022/03/15 08:20:01;;;;;;;34.42;21.50;;;;;;;;;;5039376;28;20048;-90
2022/03/15 08:22:30;;;;;;;29.10;19.80;;;;;;;;;;5039354;28;20448;-90
2022/03/15 08:24:56;;;;;;;36.33;19.58;;;;;;;;;;5039256;28;20051;-90
2022/03/15 08:27:23;;;;;;;32.03;21.55;;;;;;;;;;5039433;28;20071;-90
2022/03/15 08:29:49;;;;;;;40.58;19.60;;;;;;;;;;5039441;28;20497;-90
2022/03/15 08:32:15;;;;;;;32.20;20.70;;;;;;;;;;5039552;28;20109;-90
2022/03/15 08:34:42;;;;;;;38.53;21.20;;;;;;;;;;5039845;28;20066;-89
2022/03/15 08:37:08;;;;;;;36.72;19.33;;;;;;;;;;5040147;28;20028;-90
2022/03/15 08:39:34;;;;;;;35.33;19.65;;;;;;;;;;5039935;28;20560;-90
2022/03/15 08:42:00;;;;;;;37.85;19.98;;;;;;;;;;5039545;28;20032;-90
2022/03/15 08:44:27;;;;;;;34.33;21.17;;;;;;;;;;5039188;28;20095;-90
2022/03/15 08:46:53;;;;;;;39.50;20.17;;;;;;;;;;5056159;28;20036;-90
2022/03/15 08:49:20;;;;;;;33.45;19.77;;;;;;;;;;5039639;28;20051;-89
2022/03/15 08:51:46;;;;;;;39.35;19.42;;;;;;;;;;5039676;28;20048;-90
2022/03/15 08:54:13;;;;;;;35.58;19.40;;;;;;;;;;5056089;28;20041;-90
2022/03/15 08:56:40;;;;;;;41.47;20.70;;;;;;;;;;5039395;28;20076;-90
2022/03/15 08:59:07;;;;;;;33.75;21.25;;;;;;;;;;5039365;28;20135;-88
2022/03/15 09:01:33;;;;;;;34.75;19.67;;;;;;;;;;5039240;28;20566;-87
2022/03/15 09:03:59;;;;;;;38.00;19.92;;;;;;;;;;5055547;28;20048;-88
2022/03/15 09:06:25;;;;;;;37.55;19.65;;;;;;;;;;5039598;28;20083;-88
2022/03/15 09:08:51;;;;;;;35.50;21.50;;;;;;;;;;5039061;28;20135;-87
2022/03/15 09:11:17;;;;;;;34.53;20.63;;;;;;;;;;5039279;28;20054;-87
2022/03/15 09:13:43;;;;;;;38.28;21.17;;;;;;;;;;5038793;28;20135;-87
2022/03/15 09:16:12;;;;;;;32.13;19.85;;;;;;;;;;5039291;28;20075;-88
2022/03/15 09:18:38;;;;;;;37.20;21.05;;;;;;;;;;5039017;28;20041;-88
2022/03/15 09:21:06;;;;;;;41.05;19.90;;;;;;;;;;5040128;28;20080;-90
2022/03/15 09:23:32;;;;;;;30.80;20.42;;;;;;;;;;5057698;28;20062;-90
2022/03/15 09:25:58;;;;;;;33.72;20.40;;;;;;;;;;5043045;28;20131;-88
2022/03/15 09:28:24;;;;;;;43.28;21.17;;;;;;;;;;5043021;28;20052;-87
2022/03/15 09:30:50;;;;;;;32.53;19.20;;;;;;;;;;5043404;28;20507;-87
2022/03/15 09:33:16;;;;;;;38.78;19.88;;;;;;;;;;5042501;28;20071;-88
2022/03/15 09:35:43;;;;;;;36.90;19.73;;;;;;;;;;5042834;28;20501;-90
2022/03/15 09:38:09;;;;;;;31.55;20.05;;;;;;;;;;5043145;28;20048;-92
2022/03/15 09:40:35;;;;;;;32.40;18.85;;;;;;;;;;5043618;28;20036;-88
2022/03/15 09:43:02;;;;;;;32.38;18.13;;;;;;;;;;5043913;28;20087;-91
2022/03/15 09:45:33;;;;;;;30.98;19.35;;;;;;;;;;5059854;28;20440;-91
2022/03/15 09:48:00;;;;;;;43.00;19.75;;;;;;;;;;5044213;28;20094;-90
2022/03/15 09:50:27;;;;;;;38.15;21.05;;;;;;;;;;5060068;28;20056;-90
2022/03/15 09:52:57;;;;;;;32.85;18.63;;;;;;;;;;5043189;28;20128;-91
2022/03/15 09:55:24;;;;;;;32.20;19.52;;;;;;;;;;5043194;28;20044;-90
2022/03/15 09:57:51;;;;;;;30.10;18.42;;;;;;;;;;5042835;28;20048;-91
2022/03/15 10:00:17;;;;;;;32.17;18.80;;;;;;;;;;5042894;28;20044;-91
2022/03/15 10:02:44;;;;;;;30.88;20.17;;;;;;;;;;5042655;28;20043;-91
2022/03/15 10:05:11;;;;;;;30.27;18.48;;;;;;;;;;5059547;28;20052;-91
2022/03/15 10:07:38;;;;;;;32.25;19.23;;;;;;;;;;5042556;28;20041;-90
2022/03/15 10:10:06;;;;;;;30.20;18.27;;;;;;;;;;5043089;28;20397;-90
2022/03/15 10:12:32;;;;;;;33.03;20.15;;;;;;;;;;5042611;28;20089;-91
2022/03/15 10:15:10;;;;;;;34.97;18.85;;;;;;;;;;5042209;28;20052;-90
2022/03/15 10:17:52;;;;;;;32.00;19.15;;;;;;;;;;5038018;28;20056;-92
2022/03/15 10:20:19;;;;;;;31.05;18.63;;;;;;;;;;5039009;28;20131;-92
2022/03/15 10:22:56;;;;;;;29.20;19.98;;;9.10;99.90;;;;;;5038895;28;20041;-92
2022/03/15 10:25:24;;;;;;;30.00;19.10;;;;;;;;;;5055786;28;20052;-91
2022/03/15 10:27:51;;;;;;;30.42;17.52;;;;;;;;;;5056940;28;20037;-93
2022/03/15 10:30:17;;;;;;;30.63;18.25;;;;;;;;;;5054942;28;20053;-91
2022/03/15 10:32:43;;;;;;;27.90;18.77;;;;;;;;;;5055249;28;20136;-91
2022/03/15 10:35:09;;;;;;;25.33;17.48;;;;;;;;;;5038804;28;20516;-92
2022/03/15 10:37:36;;;;;;;41.70;18.73;;;;;;;;;;5056723;28;20045;-93
2022/03/15 10:40:03;;;;;;;30.17;19.50;;;;;;;;;;5055879;28;20051;-87
2022/03/15 10:42:29;;;;;;;29.92;17.80;;;;;;;;;;5055087;28;20098;-88
2022/03/15 10:44:57;;;;;;;33.03;19.50;;;;;;;;;;5037761;28;20045;-89
2022/03/15 10:47:23;;;;;;;28.23;17.98;;;;;;;;;;5056313;28;20049;-87
2022/03/15 10:49:49;;;;;;;30.92;16.45;;;;;;;;;;5037757;28;20083;-90
2022/03/15 10:52:32;;;;;;;25.75;18.00;;;9.70;99.90;;;;;;5038176;28;20051;-90
2022/03/15 10:55:09;;;;;;;28.10;16.13;;;;;;;;;;5037536;28;20055;-87
2022/03/15 10:57:54;;;;;;;26.88;16.05;;;;;;;;;;5055654;28;20424;-87
2022/03/15 11:00:22;;;;;;;31.13;15.23;;;;;;;;;;5055840;28;20040;-87
2022/03/15 11:02:50;;;;;;;18.63;14.02;;;;;;;;;;5055786;28;20385;-87
2022/03/15 11:05:29;;;;;;;29.02;15.70;;;;;;;;;;5055359;28;20049;-87
2022/03/15 11:07:56;;;;;;;25.40;16.65;;;;;;;;;;5037456;28;20071;-90
2022/03/15 11:10:25;;;;;;;25.50;16.35;;;;;;;;;;5054484;28;20076;-87
2022/03/15 11:12:59;;;;;;;22.05;15.25;;;9.90;99.90;;;;;;5054912;28;20482;-91
2022/03/15 11:15:30;;;;;;;22.38;16.45;;;;;;;;;;5038487;28;20045;-90
2022/03/15 11:18:02;;;;;;;24.05;15.05;;;;;;;;;;5041565;28;20080;-91
2022/03/15 11:20:31;;;;;;;21.55;13.73;;;;;;;;;;5057763;28;20033;-92
2022/03/15 11:22:59;;;;;;;25.00;13.38;;;;;;;;;;5041767;28;20075;-89
2022/03/15 11:25:26;;;;;;;24.20;13.27;;;;;;;;;;5041365;28;20050;-91
2022/03/15 11:27:53;;;;;;;23.23;12.85;;;;;;;;;;5041362;28;20040;-93
2022/03/15 11:30:20;;;;;;;16.45;11.32;;;;;;;;;;5041656;28;20067;-92
2022/03/15 11:32:47;;;;;;;26.83;13.20;;;;;;;;;;5058148;28;20057;-90
2022/03/15 11:35:14;;;;;;;18.75;9.80;;;;;;;;;;5041514;28;20048;-88
2022/03/15 11:37:45;;;;;;;18.40;9.52;;;;;;;;;;5041245;28;20076;-93
2022/03/15 11:40:12;;;;;;;14.57;9.52;;;;;;;;;;5058516;28;20484;-93
2022/03/15 11:42:44;;;;;;;16.92;9.07;;;;;;;;;;5041901;28;20032;-93
2022/03/15 11:45:20;;;;;;;13.27;7.20;;;;;;;;;;5041120;28;20051;-93
2022/03/15 11:47:46;;;;;;;9.25;5.82;;;;;;;;;;5041710;28;20040;-93
2022/03/15 11:50:21;;;;;;;9.82;4.80;;;;;;;;;;5041411;28;20487;-92
2022/03/15 11:52:50;;;;;;;9.98;5.35;;;;;;;;;;5041879;28;20044;-91
2022/03/15 11:55:28;;;;;;;9.90;6.10;;;;;;;;;;5058498;28;20057;-95
2022/03/15 11:57:59;;;;;;;11.60;5.07;;;;;;;;;;5042432;28;20094;-96
2022/03/15 12:00:32;;;;;;;9.85;4.90;;;;;;;;;;5042849;28;20378;-96
2022/03/15 12:03:02;;;;;;;9.52;3.97;;;;;;;;;;5042913;28;20416;-94
2022/03/15 12:05:28;;;;;;;8.95;4.10;;;;;;;;;;5041977;28;20048;-94
2022/03/15 12:08:15;;;;;;;5.45;3.88;;;10.00;99.90;;;;;;5058929;28;20123;-95
2022/03/15 12:10:51;;;;;;;6.53;3.70;;;;;;;;;;5042914;28;20397;-95
2022/03/15 12:13:21;;;;;;;8.13;4.75;;;;;;;;;;5045958;28;20036;-94
2022/03/15 12:15:51;;;;;;;8.57;4.68;;;;;;;;;;5047282;28;20052;-95
2022/03/15 12:21:02;;;;;;;6.35;3.58;;;;;;;;;;5056635;28;20048;-89
2022/03/15 12:23:29;;;;;;;6.38;3.72;;;;;;;;;;5056555;28;20404;-89
2022/03/15 12:25:56;;;;;;;6.50;2.97;;;;;;;;;;5039660;28;20568;-88
2022/03/15 12:28:32;;;;;;;5.18;2.80;;;;;;;;;;5056397;28;20045;-93
2022/03/15 12:31:05;;;;;;;5.60;2.50;;;;;;;;;;5039862;28;20050;-90
2022/03/15 12:33:31;;;;;;;4.93;2.38;;;;;;;;;;5040212;28;20044;-91
2022/03/15 12:36:03;;;;;;;5.97;3.42;;;;;;;;;;5040343;28;20040;-91
2022/03/15 12:38:37;;;;;;;8.80;6.22;;;;;;;;;;5040055;28;20049;-89
2022/03/15 12:41:04;;;;;;;10.13;6.03;;;;;;;;;;5056208;28;20044;-89
2022/03/15 12:43:31;;;;;;;9.07;6.40;;;;;;;;;;5056462;28;20044;-87
2022/03/15 12:46:00;;;;;;;12.68;8.98;;;;;;;;;;5039808;28;20044;-87
2022/03/15 12:48:30;;;;;;;18.15;9.20;;;;;;;;;;5040051;28;20051;-91
2022/03/15 12:50:59;;;;;;;17.15;9.20;;;;;;;;;;5056545;28;20041;-88
2022/03/15 12:53:42;;;;;;;15.63;9.55;;;;;;;;;;5056250;28;20509;-90
2022/03/15 12:56:11;;;;;;;13.73;8.90;;;;;;;;;;5039807;28;20132;-88
2022/03/15 12:58:41;;;;;;;11.82;8.48;;;;;;;;;;5060757;28;20852;-87
2022/03/15 13:01:08;;;;;;;13.10;8.93;;;;;;;;;;5043669;28;20127;-87
2022/03/15 13:03:36;;;;;;;13.05;8.13;;;;;;;;;;5044622;28;20079;-90
2022/03/15 13:06:03;;;;;;;10.75;7.05;;;;;;;;;;5044128;28;20044;-90
2022/03/15 13:08:29;;;;;;;14.95;7.18;;;;;;;;;;5060357;28;20110;-88
2022/03/15 13:10:58;;;;;;;10.15;6.72;;;;;;;;;;5043488;28;20055;-88
2022/03/15 13:13:27;;;;;;;10.98;6.35;;;;;;;;;;5059912;28;20041;-87
2022/03/15 13:16:08;;;;;;;11.55;6.95;;;;;;;;;;5059936;28;20060;-89
2022/03/15 13:18:34;;;;;;;10.20;6.40;;;;;;;;;;5060220;28;20404;-88
2022/03/15 13:21:05;;;;;;;8.73;6.20;;;;;;;;;;5066884;28;20136;-92
2022/03/15 13:23:40;;;;;;;9.35;6.05;;;;;;;;;;5066631;28;20123;-90
2022/03/15 13:26:10;;;;;;;12.80;6.40;;;10.80;99.90;;;;;;5045843;28;20143;-91
2022/03/15 13:28:47;;;;;;;12.77;6.50;;;;;;;;;;5045811;28;20033;-88
2022/03/15 13:31:14;;;;;;;11.15;6.18;;;;;;;;;;5064720;28;20108;-94
2022/03/15 13:33:41;;;;;;;16.45;8.55;;;;;;;;;;5049101;28;20044;-92
2022/03/15 13:36:10;;;;;;;10.40;6.60;;;;;;;;;;5060316;28;20052;-90
2022/03/15 13:38:47;;;;;;;17.45;7.93;;;;;;;;;;5062080;28;20086;-92
2022/03/15 13:41:15;;;;;;;8.48;5.72;;;;;;;;;;5045202;28;20052;-89
2022/03/15 13:43:42;;;;;;;11.27;5.97;;;;;;;;;;5043564;28;20109;-90
2022/03/15 13:46:09;;;;;;;13.45;5.20;;;;;;;;;;5043077;28;20158;-89
2022/03/15 13:48:39;;;;;;;5.50;3.42;;;;;;;;;;5043032;28;20044;-88
2022/03/15 13:51:10;;;;;;;10.40;4.07;;;11.10;99.90;;;;;;5043770;28;20157;-92
2022/03/15 13:53:37;;;;;;;9.98;5.22;;;;;;;;;;5043305;28;20425;-93
2022/03/15 13:56:13;;;;;;;9.65;5.85;;;;;;;;;;5044154;28;20445;-91
2022/03/15 13:58:45;;;;;;;11.10;6.53;;;;;;;;;;5061528;28;20053;-91
2022/03/15 14:01:11;;;;;;;9.20;5.75;;;;;;;;;;5060162;28;20051;-91
2022/03/15 14:03:38;;;;;;;9.15;5.25;;;;;;;;;;5043974;28;20044;-92
2022/03/15 14:06:05;;;;;;;9.25;5.32;;;;;;;;;;5043489;28;20044;-92
2022/03/15 14:08:45;;;;;;;9.82;4.60;;;;;;;;;;5059574;28;20444;-91
2022/03/15 14:11:12;;;;;;;8.20;4.25;;;;;;;;;;5059949;28;20055;-91
2022/03/15 14:13:40;;;;;;;12.63;4.20;;;;;;;;;;5043520;28;20045;-94
2022/03/15 14:16:08;;;;;;;7.38;4.28;;;;;;;;;;5039866;28;20117;-88
2022/03/15 14:18:36;;;;;;;9.68;5.15;;;;;;;;;;5056700;28;20052;-92
2022/03/15 14:21:03;;;;;;;9.10;6.00;;;;;;;;;;5056461;28;20045;-90
2022/03/15 14:23:29;;;;;;;9.63;5.90;;;;;;;;;;5041587;28;20410;-93
2022/03/15 14:26:01;;;;;;;7.93;5.60;;;11.20;99.90;;;;;;5040285;28;20053;-91